Time;durP1;ratioP1;P1;durP2;ratioP2;P2;SDS_P1;SDS_P2;PMS_P1;PMS_P2;Temp;Humidity;BMP_temperature;BMP_pressure;BME280_temperature;BME280_humidity;BME280_pressure;Samples;Min_cycle;Max_cycle;Signal;HPM_P1;HPM_P2
2022/05/13 00:01:15;;;;;;;;;;;12.10;79.40;;;;;;4935211;28;19921;-89
2022/05/13 00:03:41;;;;;;;;;;;12.10;79.80;;;;;;4955884;28;19922;-89
2022/05/13 00:06:11;;;;;;;;;;;12.00;80.10;;;;;;4925810;28;19923;-88
2022/05/13 00:08:39;;;;;;;;;;;12.00;80.30;;;;;;4943703;28;19918;-88
2022/05/13 00:11:07;;;;;;;;;;;12.00;80.30;;;;;;4939329;28;20687;-88
2022/05/13 00:13:34;;;;;;;;;;;11.90;80.40;;;;;;4937708;28;19909;-89
2022/05/13 00:16:00;;;;;;;;;;;11.90;80.70;;;;;;4947812;28;19937;-89
2022/05/13 00:18:27;;;;;;;;;;;11.90;81.00;;;;;;4927065;28;20302;-89
2022/05/13 00:20:53;;;;;;;;;;;11.80;81.20;;;;;;4950255;28;19917;-88
2022/05/13 00:23:20;;;;;;;;;;;11.80;81.50;;;;;;4921767;28;19919;-87
2022/05/13 00:25:46;;;;;;;;;;;11.80;81.50;;;;;;4935954;28;20366;-87
2022/05/13 00:28:13;;;;;;;;;;;11.80;81.50;;;;;;4969471;28;19914;-88
2022/05/13 00:30:40;;;;;;;;;;;11.80;81.50;;;;;;4946211;28;20366;-90
2022/05/13 00:33:09;;;;;;;;;;;11.70;81.90;;;;;;4930922;28;20346;-90
2022/05/13 00:35:36;;;;;;;;;;;11.70;81.80;;;;;;4952210;28;19910;-89
2022/05/13 00:38:02;;;;;;;;;;;11.70;82.00;;;;;;4928839;28;19914;-90
2022/05/13 00:40:30;;;;;;;;;;;11.70;82.30;;;;;;4944891;28;19910;-90
2022/05/13 00:42:57;;;;;;;;;;;11.70;82.60;;;;;;4946554;28;19918;-90
2022/05/13 00:45:23;;;;;;;;;;;11.70;82.90;;;;;;4955163;28;19910;-90
2022/05/13 00:47:50;;;;;;;;;;;11.60;82.90;;;;;;4947897;28;19922;-90
2022/05/13 00:50:16;;;;;;;;;;;11.60;83.10;;;;;;4954134;28;19914;-90
2022/05/13 00:52:45;;;;;;;;;;;11.60;83.70;;;;;;4922328;28;19914;-90
2022/05/13 00:55:33;;;;;;;;;;;11.60;83.90;;;;;;4931245;28;19910;-90
2022/05/13 00:58:04;;;;;;;;;;;11.60;84.10;;;;;;4967390;28;19915;-90
2022/05/13 01:00:30;;;;;;;;;;;11.50;84.00;;;;;;4947590;28;19918;-90
2022/05/13 01:02:57;;;;;;;;;;;11.50;84.60;;;;;;4945800;28;19921;-90
2022/05/13 01:05:28;;;;;;;;;;;11.50;84.80;;;;;;4944097;28;19917;-90
2022/05/13 01:07:56;;;;;;;;;;;11.50;84.90;;;;;;4936346;28;19921;-91
2022/05/13 01:10:23;;;;;;;;;;;11.50;85.40;;;;;;4930047;28;19921;-90
2022/05/13 01:12:52;;;;;;;;;;;11.50;85.60;;;;;;4952722;28;19914;-89
2022/05/13 01:15:24;;;;;;;;;;;11.50;85.70;;;;;;4928151;28;19910;-89
2022/05/13 01:18:10;;;;;;;;;;;11.50;85.80;;;;;;4938776;28;19918;-90
2022/05/13 01:20:46;;;;;;;;;;;11.50;86.50;;;;;;4946291;28;19918;-90
2022/05/13 01:23:15;;;;;;;;;;;11.50;86.30;;;;;;4934280;28;19918;-90
2022/05/13 01:25:46;;;;;;;;;;;11.50;86.70;;;;;;4940088;28;20575;-89
2022/05/13 01:28:15;;;;;;;;;;;11.40;86.90;;;;;;4942929;28;19910;-90
2022/05/13 01:30:43;;;;;;;;;;;11.40;86.90;;;;;;4944446;28;20294;-90
2022/05/13 01:33:10;;;;;;;;;;;11.40;87.30;;;;;;4946587;28;20273;-90
2022/05/13 01:35:41;;;;;;;;;;;11.40;87.70;;;;;;4965444;28;19910;-89
2022/05/13 01:38:08;;;;;;;;;;;11.40;87.70;;;;;;4953224;28;19910;-90
2022/05/13 01:40:37;;;;;;;;;;;11.40;88.20;;;;;;4947085;28;20366;-90
2022/05/13 01:43:04;;;;;;;;;;;11.40;88.40;;;;;;4954534;28;19918;-89
2022/05/13 01:45:31;;;;;;;;;;;11.30;88.40;;;;;;4944908;28;20286;-89
2022/05/13 01:47:59;;;;;;;;;;;11.30;88.50;;;;;;4934084;28;19914;-90
2022/05/13 01:50:26;;;;;;;;;;;11.30;88.80;;;;;;4968729;28;19910;-89
2022/05/13 01:52:54;;;;;;;;;;;11.30;88.90;;;;;;4955602;28;19914;-90
2022/05/13 01:55:21;;;;;;;;;;;11.30;89.00;;;;;;4931398;28;20375;-90
2022/05/13 01:57:47;;;;;;;;;;;11.20;89.40;;;;;;4962512;28;19914;-89
2022/05/13 02:00:14;;;;;;;;;;;11.30;89.70;;;;;;4939146;28;20357;-90
2022/05/13 02:05:26;;;;;;;;;;;11.40;90.30;;;;;;4956801;28;20294;-91
2022/05/13 02:07:52;;;;;;;;;;;11.40;90.80;;;;;;4940525;28;19919;-89
2022/05/13 02:10:19;;;;;;;;;;;11.40;90.80;;;;;;4959150;28;20377;-90
2022/05/13 02:12:45;;;;;;;;;;;11.40;91.20;;;;;;4943346;28;20381;-90
2022/05/13 02:15:11;;;;;;;;;;;11.40;91.20;;;;;;4964065;28;20243;-90
2022/05/13 02:17:38;;;;;;;;;;;11.50;91.30;;;;;;4925313;28;19918;-90
2022/05/13 02:20:05;;;;;;;;;;;11.50;91.40;;;;;;4953099;28;19914;-90
2022/05/13 02:22:32;;;;;;;;;;;11.50;91.50;;;;;;4937843;28;19914;-90
2022/05/13 02:24:58;;;;;;;;;;;11.60;92.00;;;;;;4937220;28;19918;-90
2022/05/13 02:27:24;;;;;;;;;;;11.60;91.80;;;;;;4949322;28;19914;-90
2022/05/13 02:29:51;;;;;;;;;;;11.60;91.90;;;;;;4948095;28;20900;-89
2022/05/13 02:32:17;;;;;;;;;;;11.60;92.10;;;;;;4945734;28;20277;-90
2022/05/13 02:34:43;;;;;;;;;;;11.60;92.30;;;;;;4947081;28;19910;-90
2022/05/13 02:37:10;;;;;;;;;;;11.60;92.80;;;;;;4948175;28;20315;-90
2022/05/13 02:39:36;;;;;;;;;;;11.60;92.70;;;;;;4960157;28;20263;-89
2022/05/13 02:42:02;;;;;;;;;;;11.60;92.70;;;;;;4946068;28;19922;-88
2022/05/13 02:44:28;;;;;;;;;;;11.70;92.70;;;;;;4954272;28;19917;-89
2022/05/13 02:46:55;;;;;;;;;;;11.70;93.10;;;;;;4947634;28;19914;-89
2022/05/13 02:49:21;;;;;;;;;;;11.70;93.10;;;;;;4955390;28;20011;-89
2022/05/13 02:51:54;;;;;;;;;;;11.70;93.20;;;;;;4952752;28;19914;-89
2022/05/13 02:54:27;;;;;;;;;;;11.70;93.30;;;;;;4937352;28;19910;-89
2022/05/13 02:56:54;;;;;;;;;;;11.80;93.40;;;;;;4948138;28;19913;-91
2022/05/13 02:59:22;;;;;;;;;;;11.80;93.50;;;;;;4944699;28;19920;-90
2022/05/13 03:01:50;;;;;;;;;;;11.90;93.80;;;;;;4949203;28;20400;-89
2022/05/13 03:04:16;;;;;;;;;;;11.90;94.00;;;;;;4946376;28;19925;-91
2022/05/13 03:06:45;;;;;;;;;;;11.90;93.90;;;;;;4934344;28;20401;-89
2022/05/13 03:09:15;;;;;;;;;;;12.00;94.20;;;;;;4960600;28;19938;-90
2022/05/13 03:11:41;;;;;;;;;;;12.00;94.40;;;;;;4947228;28;19914;-90
2022/05/13 03:14:11;;;;;;;;;;;12.00;94.40;;;;;;4958849;28;19921;-89
2022/05/13 03:16:42;;;;;;;;;;;12.10;94.80;;;;;;4943744;28;19937;-89
2022/05/13 03:19:08;;;;;;;;;;;12.10;95.00;;;;;;4936503;28;19914;-90
2022/05/13 03:21:36;;;;;;;;;;;12.10;95.10;;;;;;4926953;28;19910;-91
2022/05/13 03:24:03;;;;;;;;;;;12.10;95.20;;;;;;4956221;28;19910;-90
2022/05/13 03:26:30;;;;;;;;;;;12.10;95.30;;;;;;4926797;28;19917;-90
2022/05/13 03:28:56;;;;;;;;;;;12.10;95.60;;;;;;4957092;28;19937;-89
2022/05/13 03:31:22;;;;;;;;;;;12.10;95.80;;;;;;4936620;28;19910;-79
2022/05/13 03:33:50;;;;;;;;;;;12.20;96.20;;;;;;4967663;28;20289;-79
2022/05/13 03:36:19;;;;;;;;;;;12.20;96.20;;;;;;4957096;28;19918;-79
2022/05/13 03:38:46;;;;;;;;;;;12.20;96.60;;;;;;4968435;28;19924;-79
2022/05/13 03:41:13;;;;;;;;;;;12.20;96.70;;;;;;4948893;28;19925;-79
2022/05/13 03:43:49;;;;;;;;;;;12.20;96.90;;;;;;4957337;28;19925;-78
2022/05/13 03:46:15;;;;;;;;;;;12.30;96.90;;;;;;4963598;28;19910;-79
2022/05/13 03:48:41;;;;;;;;;;;12.30;96.90;;;;;;4960545;28;20263;-79
2022/05/13 03:51:08;;;;;;;;;;;12.30;96.90;;;;;;4961146;28;20386;-79
2022/05/13 03:53:35;;;;;;;;;;;12.40;97.10;;;;;;4966866;28;19910;-79
2022/05/13 03:56:09;;;;;;;;;;;12.40;97.20;;;;;;4942632;28;19923;-79
2022/05/13 03:58:39;;;;;;;;;;;12.40;97.50;;;;;;4960036;28;19929;-89
2022/05/13 04:01:06;;;;;;;;;;;12.30;98.00;;;;;;4935656;28;19925;-90
2022/05/13 04:03:35;;;;;;;;;;;12.30;98.10;;;;;;4940050;28;19921;-89
2022/05/13 04:09:05;;;;;;;;;;;12.20;98.70;;;;;;4933876;28;19922;-89
2022/05/13 04:11:37;;;;;;;;;;;12.20;98.80;;;;;;4947095;28;19918;-89
2022/05/13 04:16:54;;;;;;;;;;;12.10;99.70;;;;;;4954728;28;19925;-88
2022/05/13 04:19:24;;;;;;;;;;;12.00;99.90;;;;;;4950890;28;19910;-88
2022/05/13 04:21:58;;;;;;;;;;;12.00;99.90;;;;;;4932952;28;19913;-82
2022/05/13 04:24:50;;;;;;;;;;;11.90;99.90;;;;;;4958412;28;19942;-81
2022/05/13 04:27:19;;;;;;;;;;;11.90;99.90;;;;;;4952822;28;19910;-86
2022/05/13 04:29:52;;;;;;;;;;;11.90;99.90;;;;;;4944376;28;19910;-81
2022/05/13 04:32:20;;;;;;;;;;;11.90;99.90;;;;;;4951799;28;19922;-88
2022/05/13 04:34:50;;;;;;;;;;;11.80;99.90;;;;;;4931929;28;19921;-88
2022/05/13 04:37:16;;;;;;;;;;;11.90;99.90;;;;;;4930835;28;19918;-90
2022/05/13 04:39:53;;;;;;;;;;;;;;;;;;;;;
2022/05/13 04:45:15;;;;;;;;;;;12.00;99.90;;;;;;4954369;28;19910;-88
2022/05/13 04:50:28;;;;;;;;;;;12.10;99.90;;;;;;4940321;28;19917;-88
2022/05/13 04:52:59;;;;;;;;;;;12.20;99.90;;;;;;4959920;28;19918;-90
2022/05/13 04:55:25;;;;;;;;;;;12.20;99.90;;;;;;4954185;28;19914;-90
2022/05/13 04:57:52;;;;;;;;;;;12.30;99.90;;;;;;4921503;28;20275;-90
2022/05/13 05:00:18;;;;;;;;;;;12.30;99.90;;;;;;4933341;28;19914;-89
2022/05/13 05:02:45;;;;;;;;;;;12.30;99.90;;;;;;4953484;28;19911;-83
2022/05/13 05:05:11;;;;;;;;;;;12.30;99.90;;;;;;4954667;28;20279;-85
2022/05/13 05:07:37;;;;;;;;;;;12.30;99.90;;;;;;4938690;28;19910;-86
2022/05/13 05:10:03;;;;;;;;;;;12.30;99.90;;;;;;4951377;28;19914;-84
2022/05/13 05:12:30;;;;;;;;;;;12.20;99.90;;;;;;4927129;28;19914;-88
2022/05/13 05:14:58;;;;;;;;;;;12.20;99.90;;;;;;4928126;28;19914;-89
2022/05/13 05:17:24;;;;;;;;;;;12.30;99.90;;;;;;4932816;28;19926;-89
2022/05/13 05:19:50;;;;;;;;;;;12.40;99.90;;;;;;4943690;28;19914;-89
2022/05/13 05:22:17;;;;;;;;;;;12.50;99.90;;;;;;4945668;28;20385;-89
2022/05/13 05:24:43;;;;;;;;;;;12.70;99.90;;;;;;4940596;28;20254;-89
2022/05/13 05:27:10;;;;;;;;;;;12.90;99.90;;;;;;4952455;28;19911;-88
2022/05/13 05:29:36;;;;;;;;;;;13.10;99.90;;;;;;4959507;28;19914;-90
2022/05/13 05:32:02;;;;;;;;;;;13.30;99.90;;;;;;4949199;28;19918;-89
2022/05/13 05:34:29;;;;;;;;;;;13.50;99.90;;;;;;4957255;28;19912;-88
2022/05/13 05:36:55;;;;;;;;;;;13.80;99.90;;;;;;4925388;28;19922;-88
2022/05/13 05:39:21;;;;;;;;;;;14.00;99.90;;;;;;4952326;28;19917;-88
2022/05/13 05:41:48;;;;;;;;;;;14.30;99.90;;;;;;4939459;28;20374;-88
2022/05/13 05:44:14;;;;;;;;;;;14.40;99.90;;;;;;4946573;28;20270;-89
2022/05/13 05:46:40;;;;;;;;;;;14.50;99.90;;;;;;4945103;28;19910;-89
2022/05/13 05:49:07;;;;;;;;;;;14.40;99.90;;;;;;4969331;28;19918;-89
2022/05/13 05:51:33;;;;;;;;;;;14.40;99.90;;;;;;4930923;28;19929;-88
2022/05/13 05:59:41;;;;;;;;;;;14.10;99.90;;;;;;4964856;28;20397;-81
2022/05/13 06:02:11;;;;;;;;;;;14.10;99.90;;;;;;4947689;28;19917;-85
2022/05/13 06:04:40;;;;;;;;;;;14.10;99.90;;;;;;4936261;28;20305;-83
2022/05/13 06:07:15;;;;;;;;;;;14.20;99.90;;;;;;4960656;28;19918;-83
2022/05/13 06:09:44;;;;;;;;;;;14.30;99.90;;;;;;4918840;28;19910;-83
2022/05/13 06:12:12;;;;;;;;;;;14.40;99.90;;;;;;4943981;29;19925;-82
2022/05/13 06:18:36;;;;;;;;;;;14.50;99.90;;;;;;4938819;29;19925;-81
2022/05/13 06:21:04;;;;;;;;;;;14.60;99.90;;;;;;4935361;29;19938;-82
2022/05/13 06:23:30;;;;;;;;;;;14.70;99.90;;;;;;4922678;29;20385;-82
2022/05/13 06:25:57;;;;;;;;;;;14.70;99.90;;;;;;4943424;29;20359;-84
2022/05/13 06:28:24;;;;;;;;;;;14.80;99.90;;;;;;4929264;29;19918;-80
2022/05/13 06:31:00;;;;;;;;;;;14.80;99.90;;;;;;4947441;29;19917;-82
2022/05/13 06:33:35;;;;;;;;;;;14.90;99.90;;;;;;4949510;29;20384;-89
2022/05/13 06:36:06;;;;;;;;;;;15.00;99.90;;;;;;4915677;29;20362;-90
2022/05/13 06:38:34;;;;;;;;;;;15.00;99.90;;;;;;4921836;29;19914;-90
2022/05/13 06:41:01;;;;;;;;;;;15.10;99.90;;;;;;4916318;29;19915;-89
2022/05/13 06:46:48;;;;;;;;;;;15.30;99.90;;;;;;4905633;29;19910;-88
2022/05/13 06:49:15;;;;;;;;;;;15.40;99.90;;;;;;4936115;29;19911;-88
2022/05/13 06:51:48;;;;;;;;;;;15.50;99.90;;;;;;4928201;29;19914;-91
2022/05/13 06:54:18;;;;;;;;;;;15.60;99.90;;;;;;4925550;29;19919;-92
2022/05/13 06:56:47;;;;;;;;;;;15.70;99.90;;;;;;4920601;29;19918;-88
2022/05/13 06:59:14;;;;;;;;;;;15.80;99.90;;;;;;4924372;29;19911;-90
2022/05/13 07:01:46;;;;;;;;;;;15.80;99.90;;;;;;4930336;29;19910;-90
2022/05/13 07:04:19;;;;;;;;;;;16.00;99.90;;;;;;4924887;29;19917;-94
2022/05/13 07:06:47;;;;;;;;;;;16.10;99.90;;;;;;4946222;29;19918;-92
2022/05/13 07:09:34;;;;;;;;;;;16.10;99.90;;;;;;4955897;28;19910;-94
2022/05/13 07:12:03;;;;;;;;;;;16.20;99.90;;;;;;4941085;28;19925;-93
2022/05/13 07:14:30;;;;;;;;;;;16.20;99.90;;;;;;4969265;28;19918;-85
2022/05/13 07:16:56;;;;;;;;;;;16.30;99.90;;;;;;4938661;29;19927;-87
2022/05/13 07:19:22;;;;;;;;;;;16.40;99.90;;;;;;4930510;29;20286;-88
2022/05/13 07:21:48;;;;;;;;;;;16.50;99.90;;;;;;4924413;29;19914;-86
2022/05/13 07:24:15;;;;;;;;;;;16.60;99.90;;;;;;4936357;29;19911;-87
2022/05/13 07:26:41;;;;;;;;;;;16.70;99.90;;;;;;4936744;29;19920;-88
2022/05/13 07:29:07;;;;;;;;;;;16.90;99.90;;;;;;4920486;29;20368;-88
2022/05/13 07:31:34;;;;;;;;;;;17.00;99.90;;;;;;4940479;29;19938;-88
2022/05/13 07:34:01;;;;;;;;;;;17.10;99.90;;;;;;4936229;29;19914;-90
2022/05/13 07:36:29;;;;;;;;;;;17.20;99.90;;;;;;4944761;29;19917;-87
2022/05/13 07:41:41;;;;;;;;;;;17.60;99.70;;;;;;4922979;29;19914;-85
2022/05/13 07:44:08;;;;;;;;;;;17.80;99.10;;;;;;4954309;29;19919;-85
2022/05/13 07:46:34;;;;;;;;;;;18.20;98.90;;;;;;4952142;29;19925;-85
2022/05/13 07:49:01;;;;;;;;;;;18.70;98.20;;;;;;4930836;29;19922;-86
2022/05/13 07:51:27;;;;;;;;;;;18.90;97.30;;;;;;4949489;29;19910;-85
2022/05/13 07:53:56;;;;;;;;;;;18.80;96.80;;;;;;4950258;28;19974;-86
2022/05/13 07:56:40;;;;;;;;;;;18.70;96.40;;;;;;4923581;29;19914;-85
2022/05/13 08:00:24;;;;;;;;;;;18.50;96.30;;;;;;4921057;29;19914;-85
2022/05/13 08:02:44;;;;;;;;;;;18.30;96.40;;;;;;4960973;28;19914;-86
2022/05/13 08:05:10;;;;;;;;;;;18.20;96.50;;;;;;4946280;28;20349;-84
2022/05/13 08:08:23;;;;;;;;;;;18.00;96.60;;;;;;4913645;28;19914;-85
2022/05/13 08:11:30;;;;;;;;;;;;;;;;;;;;;
2022/05/13 08:15:11;;;;;;;;;;;17.80;96.80;;;;;;4893205;28;19918;-89
2022/05/13 08:17:55;;;;;;;;;;;17.70;96.80;;;;;;4952385;28;19926;-89
2022/05/13 08:24:06;;;;;;;;;;;17.60;96.80;;;;;;4879298;29;20375;-90
2022/05/13 08:26:56;;;;;;;;;;;17.40;97.00;;;;;;4864452;29;20327;-90
2022/05/13 08:29:53;;;;;;;;;;;17.40;97.20;;;;;;4923166;29;19914;-86
2022/05/13 08:32:31;;;;;;;;;;;17.40;97.30;;;;;;4957633;28;20302;-91
2022/05/13 08:35:16;;;;;;;;;;;17.50;97.20;;;;;;4925415;29;19926;-87
2022/05/13 08:38:01;;;;;;;;;;;17.80;97.00;;;;;;4906734;29;19922;-87
2022/05/13 08:41:01;;;;;;;;;;;;;;;;;;;;;
2022/05/13 08:43:56;;;;;;;;;;;18.30;96.40;;;;;;4951281;28;19914;-86
2022/05/13 08:47:23;;;;;;;;;;;18.60;95.80;;;;;;4912711;29;19911;-88
2022/05/13 08:50:09;;;;;;;;;;;18.80;95.40;;;;;;4783900;29;19913;-89
2022/05/13 08:53:23;;;;;;;;;;;19.00;95.10;;;;;;4911812;29;19911;-89
2022/05/13 08:56:57;;;;;;;;;;;;;;;;;;;;;
2022/05/13 09:00:37;;;;;;;;;;;18.70;94.70;;;;;;4853087;29;19916;-86
2022/05/13 09:03:25;;;;;;;;;;;18.60;94.90;;;;;;4850791;29;19916;-85
2022/05/13 09:06:07;;;;;;;;;;;18.80;94.70;;;;;;4866228;29;19920;-85
2022/05/13 09:17:10;;;;;;;;;;;19.60;92.40;;;;;;4781779;29;19913;-83
2022/05/13 09:20:00;;;;;;;;;;;19.70;91.50;;;;;;4789404;29;20056;-85
2022/05/13 09:22:49;;;;;;;;;;;20.00;90.90;;;;;;4824170;29;19912;-87
2022/05/13 09:25:42;;;;;;;;;;;20.20;89.50;;;;;;4883476;29;20355;-87
2022/05/13 09:28:14;;;;;;;;;;;20.10;89.00;;;;;;4900565;29;19919;-85
2022/05/13 09:30:43;;;;;;;;;;;20.10;89.10;;;;;;4898386;29;19919;-85
2022/05/13 09:33:23;;;;;;;;;;;20.20;88.10;;;;;;4901749;29;19926;-85
2022/05/13 09:35:52;;;;;;;;;;;20.40;87.20;;;;;;4886131;29;19926;-86
2022/05/13 09:38:21;;;;;;;;;;;20.70;85.50;;;;;;4914861;29;19930;-88
2022/05/13 09:40:56;;;;;;;;;;;20.90;84.60;;;;;;4883950;29;19911;-86
2022/05/13 09:43:37;;;;;;;;;;;21.00;83.10;;;;;;4904666;28;19910;-85
2022/05/13 09:46:05;;;;;;;;;;;20.90;82.90;;;;;;4937539;28;19907;-86
2022/05/13 09:48:33;;;;;;;;;;;20.90;82.80;;;;;;4937337;28;19910;-85
2022/05/13 09:51:16;;;;;;;;;;;21.10;82.70;;;;;;4919481;29;19915;-85
2022/05/13 09:53:42;;;;;;;;;;;21.40;82.00;;;;;;4939225;28;19918;-89
2022/05/13 09:56:12;;;;;;;;;;;21.60;80.80;;;;;;4945912;28;19914;-88
2022/05/13 09:58:52;;;;;;;;;;;21.50;79.60;;;;;;4953673;28;19922;-87
2022/05/13 10:01:28;;;;;;;;;;;21.20;79.50;;;;;;4937278;28;19918;-87
2022/05/13 10:04:01;;;;;;;;;;;21.00;79.50;;;;;;4937449;28;19919;-88
2022/05/13 10:06:34;;;;;;;;;;;20.80;79.90;;;;;;4940895;28;19917;-87
2022/05/13 10:14:54;;;;;;;;;;;21.30;78.70;;;;;;4947756;28;20419;-88
2022/05/13 10:20:50;;;;;;;;;;;21.60;77.90;;;;;;4958034;28;19910;-92
2022/05/13 10:23:16;;;;;;;;;;;21.80;77.10;;;;;;4940606;28;19910;-90
2022/05/13 10:26:37;;;;;;;;;;;21.90;77.00;;;;;;4948590;28;19914;-83
2022/05/13 10:29:09;;;;;;;;;;;22.10;76.60;;;;;;4937419;28;19917;-84
2022/05/13 10:31:59;;;;;;;;;;;22.30;77.00;;;;;;4927992;28;19910;-88
2022/05/13 10:34:54;;;;;;;;;;;22.50;75.60;;;;;;4959655;28;19911;-86
2022/05/13 10:37:37;;;;;;;;;;;22.70;73.90;;;;;;4969804;28;19915;-83
2022/05/13 10:40:07;;;;;;;;;;;22.90;73.90;;;;;;4952877;28;19969;-89
2022/05/13 10:42:36;;;;;;;;;;;23.20;72.50;;;;;;4946965;28;19910;-91
2022/05/13 10:45:20;;;;;;;;;;;23.30;71.50;;;;;;4947307;28;19910;-87
2022/05/13 10:48:12;;;;;;;;;;;23.50;70.90;;;;;;4966070;28;19910;-88
2022/05/13 10:51:00;;;;;;;;;;;23.80;70.50;;;;;;4953992;28;19914;-87
2022/05/13 10:53:35;;;;;;;;;;;24.30;69.20;;;;;;4964574;28;19917;-85
2022/05/13 10:56:07;;;;;;;;;;;24.50;68.00;;;;;;4944377;28;19918;-85
2022/05/13 10:58:52;;;;;;;;;;;24.60;67.10;;;;;;4937817;28;19914;-86
2022/05/13 11:01:42;;;;;;;;;;;24.70;65.50;;;;;;4935453;28;19910;-84
2022/05/13 11:04:23;;;;;;;;;;;24.70;63.70;;;;;;4970123;28;20416;-85
2022/05/13 11:07:08;;;;;;;;;;;24.60;64.00;;;;;;4938009;28;19914;-85
2022/05/13 11:09:49;;;;;;;;;;;24.50;63.60;;;;;;4953325;28;19921;-86
2022/05/13 11:12:31;;;;;;;;;;;24.00;63.70;;;;;;4950745;28;19914;-85
2022/05/13 11:15:26;;;;;;;;;;;23.60;64.10;;;;;;4968763;28;19910;-82
2022/05/13 11:18:11;;;;;;;;;;;23.20;64.50;;;;;;4953818;28;19928;-85
2022/05/13 11:20:51;;;;;;;;;;;23.10;64.80;;;;;;4976314;28;19914;-87
2022/05/13 11:23:33;;;;;;;;;;;23.40;64.70;;;;;;4985364;28;20254;-87
2022/05/13 11:26:02;;;;;;;;;;;23.70;63.90;;;;;;4966223;28;19914;-84
2022/05/13 11:28:50;;;;;;;;;;;23.60;64.20;;;;;;4933192;28;20281;-85
2022/05/13 11:31:27;;;;;;;;;;;23.50;64.10;;;;;;4958771;28;19910;-85
2022/05/13 11:34:19;;;;;;;;;;;23.40;64.10;;;;;;4938308;28;19914;-84
2022/05/13 11:37:21;;;;;;;;;;;23.30;63.70;;;;;;4970229;28;19910;-86
2022/05/13 11:40:23;;;;;;;;;;;23.20;63.80;;;;;;4976451;28;19915;-86
2022/05/13 11:46:18;;;;;;;;;;;23.10;63.80;;;;;;4962152;28;19918;-86
2022/05/13 11:48:46;;;;;;;;;;;23.00;63.30;;;;;;4954889;28;19917;-85
2022/05/13 11:51:20;;;;;;;;;;;23.20;63.20;;;;;;4969882;28;19914;-86
2022/05/13 11:54:09;;;;;;;;;;;23.10;62.90;;;;;;4964320;28;19910;-86
2022/05/13 11:56:45;;;;;;;;;;;23.10;63.40;;;;;;4939328;28;19925;-85
2022/05/13 11:59:37;;;;;;;;;;;23.80;62.30;;;;;;4969085;28;19914;-85
2022/05/13 12:02:33;;;;;;;;;;;24.50;61.50;;;;;;4950974;28;20290;-86
2022/05/13 12:05:25;;;;;;;;;;;24.60;60.90;;;;;;4954871;28;19925;-84
2022/05/13 12:08:00;;;;;;;;;;;24.40;61.00;;;;;;4951055;28;19921;-84
2022/05/13 12:10:45;;;;;;;;;;;24.30;61.10;;;;;;4960890;28;20317;-85
2022/05/13 12:13:29;;;;;;;;;;;24.20;61.50;;;;;;4921350;29;19925;-85
2022/05/13 12:16:17;;;;;;;;;;;24.50;61.10;;;;;;4935013;29;20302;-85
2022/05/13 12:18:44;;;;;;;;;;;24.50;60.40;;;;;;4918982;29;19922;-85
2022/05/13 12:21:32;;;;;;;;;;;24.10;60.40;;;;;;4921800;29;20247;-85
2022/05/13 12:24:21;;;;;;;;;;;23.70;60.80;;;;;;4909417;29;19919;-84
2022/05/13 12:27:07;;;;;;;;;;;23.50;60.90;;;;;;4922105;29;19914;-84
2022/05/13 12:29:43;;;;;;;;;;;24.00;60.90;;;;;;4917558;29;19922;-84
2022/05/13 12:32:30;;;;;;;;;;;24.20;60.70;;;;;;4932999;29;19918;-85
2022/05/13 12:38:07;;;;;;;;;;;24.20;60.20;;;;;;4939846;29;19925;-84
2022/05/13 12:40:34;;;;;;;;;;;24.00;60.90;;;;;;4919743;29;19910;-83
2022/05/13 12:43:37;;;;;;;;;;;;;;;;;;;;;
2022/05/13 12:46:19;;;;;;;;;;;24.70;59.60;;;;;;4918804;29;19910;-84
2022/05/13 12:49:11;;;;;;;;;;;24.90;58.80;;;;;;4907267;29;20468;-85
2022/05/13 12:51:42;;;;;;;;;;;25.30;58.20;;;;;;4923067;29;19922;-88
2022/05/13 12:54:12;;;;;;;;;;;25.40;57.70;;;;;;4905825;29;19923;-87
2022/05/13 12:56:59;;;;;;;;;;;25.70;57.20;;;;;;4895629;29;20382;-88
2022/05/13 12:59:31;;;;;;;;;;;26.30;56.70;;;;;;4917783;29;19922;-87
2022/05/13 13:01:59;;;;;;;;;;;26.80;55.40;;;;;;4886561;29;19911;-87
2022/05/13 13:04:33;;;;;;;;;;;27.20;54.00;;;;;;4924634;29;19918;-89
2022/05/13 13:07:11;;;;;;;;;;;27.30;53.50;;;;;;4896659;29;20299;-80
2022/05/13 13:09:43;;;;;;;;;;;27.50;52.70;;;;;;4926118;29;19914;-81
2022/05/13 13:12:28;;;;;;;;;;;27.60;52.70;;;;;;4912353;29;19915;-83
2022/05/13 13:14:58;;;;;;;;;;;28.10;52.40;;;;;;4932710;29;19919;-82
2022/05/13 13:17:41;;;;;;;;;;;28.20;52.10;;;;;;4944580;29;19910;-82
2022/05/13 13:20:12;;;;;;;;;;;28.40;51.60;;;;;;4945653;28;19918;-82
2022/05/13 13:22:46;;;;;;;;;;;28.50;50.80;;;;;;4952326;28;19910;-83
2022/05/13 13:25:28;;;;;;;;;;;28.50;50.30;;;;;;4954429;28;20358;-81
2022/05/13 13:27:56;;;;;;;;;;;28.40;49.70;;;;;;4939526;28;19911;-84
2022/05/13 13:30:24;;;;;;;;;;;28.10;50.00;;;;;;4949818;28;20259;-83
2022/05/13 13:32:51;;;;;;;;;;;28.50;49.60;;;;;;4935203;28;19918;-83
2022/05/13 13:35:39;;;;;;;;;;;28.60;48.80;;;;;;4936443;28;20366;-83
2022/05/13 13:38:08;;;;;;;;;;;28.50;49.00;;;;;;4945719;28;19929;-85
2022/05/13 13:40:36;;;;;;;;;;;28.80;48.80;;;;;;4957999;28;19911;-83
2022/05/13 13:43:09;;;;;;;;;;;29.10;48.60;;;;;;4940051;28;19910;-84
2022/05/13 13:45:36;;;;;;;;;;;29.10;47.70;;;;;;4966092;28;19930;-84
2022/05/13 13:48:07;;;;;;;;;;;28.50;48.30;;;;;;4946940;28;19918;-84
2022/05/13 13:50:34;;;;;;;;;;;27.90;49.00;;;;;;4937152;28;19914;-84
2022/05/13 13:53:00;;;;;;;;;;;27.90;49.70;;;;;;4952571;28;20267;-84
2022/05/13 13:55:33;;;;;;;;;;;27.70;49.10;;;;;;4954115;28;19914;-84
2022/05/13 13:58:09;;;;;;;;;;;27.80;49.60;;;;;;4966965;28;19921;-83
2022/05/13 14:00:39;;;;;;;;;;;28.30;49.10;;;;;;4929414;28;19918;-84
2022/05/13 14:03:07;;;;;;;;;;;28.60;48.30;;;;;;4956821;28;19914;-85
2022/05/13 14:05:38;;;;;;;;;;;28.70;48.40;;;;;;4922343;28;19921;-88
2022/05/13 14:08:12;;;;;;;;;;;29.20;47.90;;;;;;4951736;28;20021;-88
2022/05/13 14:10:53;;;;;;;;;;;29.80;46.60;;;;;;4930372;28;19918;-88
2022/05/13 14:13:43;;;;;;;;;;;30.30;46.20;;;;;;4952751;28;19996;-89
2022/05/13 14:16:22;;;;;;;;;;;31.20;45.10;;;;;;4940441;28;19925;-90
2022/05/13 14:19:09;;;;;;;;;;;32.00;43.80;;;;;;4937005;28;19925;-89
2022/05/13 14:21:48;;;;;;;;;;;32.40;42.40;;;;;;4965493;28;19910;-90
2022/05/13 14:24:36;;;;;;;;;;;32.30;41.20;;;;;;4925096;28;19983;-90
2022/05/13 14:27:26;;;;;;;;;;;32.00;41.20;;;;;;4946300;28;19925;-88
2022/05/13 14:29:57;;;;;;;;;;;31.70;41.50;;;;;;4945471;28;19917;-90
2022/05/13 14:32:31;;;;;;;;;;;31.70;41.10;;;;;;4921851;28;19911;-89
2022/05/13 14:35:07;;;;;;;;;;;31.70;41.50;;;;;;4921276;28;20282;-89
2022/05/13 14:37:53;;;;;;;;;;;31.80;41.30;;;;;;4949342;28;19922;-91
2022/05/13 14:40:26;;;;;;;;;;;31.90;40.90;;;;;;4960228;28;19922;-84
2022/05/13 14:42:54;;;;;;;;;;;32.00;40.70;;;;;;4939252;28;19918;-86
2022/05/13 14:49:44;;;;;;;;;;;31.80;41.00;;;;;;4958294;28;19914;-91
2022/05/13 14:52:25;;;;;;;;;;;31.80;40.90;;;;;;4958558;28;19914;-91
2022/05/13 14:55:12;;;;;;;;;;;32.20;40.80;;;;;;4958772;28;19910;-91
2022/05/13 14:57:48;;;;;;;;;;;32.60;40.40;;;;;;4945015;28;19918;-90
2022/05/13 15:05:16;;;;;;;;;;;33.20;39.60;;;;;;4910939;29;20304;-93
2022/05/13 15:11:28;;;;;;;;;;;33.60;39.20;;;;;;4902550;29;19911;-91
2022/05/13 15:14:26;;;;;;;;;;;33.80;39.00;;;;;;4939358;28;19914;-94
2022/05/13 15:17:53;;;;;;;;;;;;;;;;;;;;;
2022/05/13 15:26:00;;;;;;;;;;;33.60;39.10;;;;;;4922060;29;19911;-91
2022/05/13 15:28:55;;;;;;;;;;;33.10;39.20;;;;;;4862941;29;19911;-92
2022/05/13 15:31:37;;;;;;;;;;;31.70;40.50;;;;;;4895885;29;19939;-86
2022/05/13 15:34:04;;;;;;;;;;;30.40;42.00;;;;;;4873815;29;19927;-85
2022/05/13 15:36:32;;;;;;;;;;;29.10;43.30;;;;;;4930564;28;19917;-86
2022/05/13 15:38:59;;;;;;;;;;;27.90;44.60;;;;;;4960411;28;19914;-86
2022/05/13 15:41:26;;;;;;;;;;;27.00;46.10;;;;;;4938748;28;19914;-87
2022/05/13 15:43:52;;;;;;;;;;;26.40;47.30;;;;;;4937029;28;19917;-86
2022/05/13 15:46:21;;;;;;;;;;;25.90;48.30;;;;;;4969532;28;19923;-88
2022/05/13 15:48:54;;;;;;;;;;;25.50;49.30;;;;;;4947759;28;20377;-87
2022/05/13 15:54:05;;;;;;;;;;;24.80;50.50;;;;;;4946600;28;19921;-87
2022/05/13 15:56:34;;;;;;;;;;;24.40;51.20;;;;;;4942527;28;19933;-88
2022/05/13 15:59:01;;;;;;;;;;;24.20;51.70;;;;;;4940799;28;19914;-87
2022/05/13 16:01:27;;;;;;;;;;;23.90;52.20;;;;;;4943442;28;20357;-87
2022/05/13 16:03:54;;;;;;;;;;;23.80;52.70;;;;;;4945951;28;19911;-84
2022/05/13 16:06:20;;;;;;;;;;;23.60;53.00;;;;;;4953166;28;19914;-87
2022/05/13 16:08:46;;;;;;;;;;;23.40;53.20;;;;;;4942016;28;19922;-87
2022/05/13 16:11:15;;;;;;;;;;;23.30;53.40;;;;;;4933810;28;19918;-86
2022/05/13 16:13:47;;;;;;;;;;;23.20;53.70;;;;;;4974388;28;19921;-86
2022/05/13 16:16:25;;;;;;;;;;;23.10;54.20;;;;;;4939628;28;19925;-89
2022/05/13 16:18:52;;;;;;;;;;;23.00;54.50;;;;;;4942120;28;19921;-87
2022/05/13 16:21:20;;;;;;;;;;;22.90;54.90;;;;;;4945334;28;19917;-86
2022/05/13 16:23:48;;;;;;;;;;;22.70;55.10;;;;;;4942693;28;21049;-86